Petersburg, NY

2:10 PM EDT on August 20, 2014 (GMT -0400)
Rensselaer Plateau | Change Station
CLOSE
Current Station
Personal Weather Station
Location: Grafton, NY
Elevation: 1650 ft
Nearby Weather Stations

Elev 1650 ft 42.73 °N, 73.41 °W | Updated 133 days ago

Partly Cloudy
Partly Cloudy
73 °F
Feels Like 73 °F
N
3
Wind Variable Wind from South
Gusts 5 mph

Today
High -- | Low -- °F
--% Chance of Precip.
Yesterday
High -- | Low -- °F
Precip. -- in
6:05 AM 7:47 PM
Waning Crescent, 20% visible
Pressure 29.98 in
Visibility 10.0 miles
Clouds Clear
Dew Point 63 °F
Humidity 68%
Rainfall 0.00 in
Snow Depth Not available.
UV 9 out of 12
Pollen 9.10 out of 12
PM2.5 Moderate
Flu Activity Not available.
METAR KDDH 201754Z AUTO 28004KT 10SM CLR 27/17 A2999 RMK AO2 SLP151 T02670172 10272 20161 58007

More Conditions Fewer Conditions

Pressure 29.98 in
Visibility 10.0 miles
Clouds Clear
Dew Point 63 °F
Humidity 68%
Rainfall 0.00 in
Snow Depth Not available.
UV 9 out of 12
Pollen 9.10 out of 12
PM2.5 Moderate
Flu Activity Not available.
METAR KDDH 201754Z AUTO 28004KT 10SM CLR 27/17 A2999 RMK AO2 SLP151 T02670172 10272 20161 58007

More Conditions Fewer Conditions

10-Day Weather Forecast

Almanac

Astronomy

Aug. 20, 2014 Rise Set
Actual Time 6:05 AM EDT 7:47 PM EDT
Civil Twilight 5:35 AM EDT 8:17 PM EDT
Nautical Twilight 4:58 AM EDT 8:54 PM EDT
Astronomical Twilight 4:19 AM EDT 9:33 PM EDT
Moon 1:40 AM EDT 4:33 PM EDT
Length of Visible Light 14h 42m
Length of Day
13h 42m
Tomorrow will be 2m 39s shorter.
Waning Crescent, 20% of the Moon is Illuminated
Today
Waning Crescent
Aug 25
New
Sep 2
First Quarter
Sep 8
Full
Sep 15
Last Quarter

Today's Extremes

State Highs State Lows

Community

WunderPhotos

Upload Photos

1,745,703 photos uploaded!

WunderBlogs® & News

Nearby

Air Quality

  Air Quality AQ Index Pollutant
Yesterday Good
OZONE
Yesterday Good
PM2.5
Current Moderate
PM2.5
Wednesday Good
OZONE
Wednesday Good
PM2.5

Snow Depth

Station Depth Elevation
No new snow has been reported.

Earthquake Activity

City Distance Mag. Time & Date
Deep River Center, Connecticut 107 miles 2.7 3:09 AM EDT
2014-08-14
Minimum magnitude displayed is 2.5.

Coastal Water Temperatures

Place Temperature
No Stations Reporting

Nearby Weather Stations